createdAt,value
2019-05-03T00:02:27.397Z,11.67
2019-05-03T00:05:26.398Z,13.77
2019-05-03T00:08:22.188Z,16.83
2019-05-03T00:10:51.838Z,14.57
2019-05-03T00:13:21.864Z,13.00
2019-05-03T00:16:06.536Z,14.87
2019-05-03T00:18:35.754Z,12.43
2019-05-03T00:21:04.964Z,11.17
2019-05-03T00:23:34.206Z,12.90
2019-05-03T00:26:03.421Z,11.33
2019-05-03T00:28:32.704Z,11.03
2019-05-03T00:31:02.219Z,11.53
2019-05-03T00:33:31.856Z,11.03
2019-05-03T00:36:17.577Z,12.33
2019-05-03T00:38:47.024Z,12.20
2019-05-03T00:41:16.352Z,16.50
2019-05-03T00:43:45.591Z,11.00
2019-05-03T00:46:17.879Z,12.63
2019-05-03T00:48:47.146Z,14.10
2019-05-03T00:51:16.394Z,13.77
2019-05-03T00:53:45.651Z,12.47
2019-05-03T00:56:14.859Z,11.53
2019-05-03T00:58:54.258Z,11.50
2019-05-03T01:01:23.507Z,12.47
2019-05-03T01:03:52.875Z,14.73
2019-05-03T01:06:22.396Z,12.60
2019-05-03T01:08:52.346Z,13.20
2019-05-03T01:11:22.206Z,14.40
2019-05-03T01:13:52.325Z,16.53
2019-05-03T01:16:23.050Z,13.97
2019-05-03T01:18:52.546Z,12.57
2019-05-03T01:21:22.527Z,15.10
2019-05-03T01:23:52.639Z,16.70
2019-05-03T01:26:22.634Z,16.20
2019-05-03T01:28:52.396Z,15.73
2019-05-03T01:31:22.871Z,17.43
2019-05-03T01:33:52.301Z,16.37
2019-05-03T01:36:22.761Z,18.83
2019-05-03T01:38:52.954Z,17.23
2019-05-03T01:41:23.723Z,19.40
2019-05-03T01:43:53.340Z,16.37
2019-05-03T01:46:23.091Z,20.20
2019-05-03T01:49:17.499Z,20.17
2019-05-03T01:51:57.471Z,20.33
2019-05-03T01:54:26.725Z,20.10
2019-05-03T01:56:59.122Z,19.07
2019-05-03T01:59:26.936Z,22.10
2019-05-03T02:02:14.116Z,22.70
2019-05-03T02:04:47.488Z,17.50
2019-05-03T02:07:16.717Z,18.90
2019-05-03T02:09:45.975Z,21.13
2019-05-03T02:12:15.217Z,23.00
2019-05-03T02:14:44.456Z,21.70
2019-05-03T02:17:13.711Z,20.57
2019-05-03T02:19:42.913Z,19.90
2019-05-03T02:22:12.208Z,21.40
2019-05-03T02:24:42.286Z,22.67
2019-05-03T02:27:12.727Z,22.77
2019-05-03T02:29:42.058Z,23.40
2019-05-03T02:32:13.181Z,19.93
2019-05-03T02:34:43.966Z,21.33
2019-05-03T02:37:13.967Z,19.93
2019-05-03T02:39:43.391Z,22.07
2019-05-03T02:42:15.866Z,18.77
2019-05-03T02:44:46.228Z,20.10
2019-05-03T02:47:43.034Z,19.67
2019-05-03T02:50:16.737Z,18.63
2019-05-03T02:52:46.105Z,19.43
2019-05-03T02:55:16.438Z,18.67
2019-05-03T02:57:46.845Z,21.73
2019-05-03T03:00:16.865Z,20.50
2019-05-03T03:02:46.583Z,20.90
2019-05-03T03:05:16.761Z,20.80
2019-05-03T03:07:47.179Z,17.43
2019-05-03T03:10:17.216Z,19.77
2019-05-03T03:12:49.108Z,17.20
2019-05-03T03:15:18.465Z,19.83
2019-05-03T03:17:49.873Z,19.20
2019-05-03T03:20:19.660Z,19.07
2019-05-03T03:22:50.764Z,19.70
2019-05-03T03:25:25.961Z,20.53
2019-05-03T03:27:59.048Z,18.63
2019-05-03T03:30:48.660Z,19.73
2019-05-03T03:33:18.895Z,19.03
2019-05-03T03:35:49.246Z,23.03
2019-05-03T03:38:19.560Z,20.40
2019-05-03T03:40:50.090Z,19.90
2019-05-03T03:43:22.009Z,20.33
2019-05-03T03:45:52.257Z,18.43
2019-05-03T03:48:22.293Z,17.77
2019-05-03T03:50:56.147Z,19.43
2019-05-03T03:53:28.362Z,21.40
2019-05-03T03:55:59.844Z,20.13
2019-05-03T03:58:29.329Z,21.33
2019-05-03T04:00:59.002Z,17.80
2019-05-03T04:03:28.328Z,18.43
2019-05-03T04:05:57.610Z,18.50
2019-05-03T04:08:27.093Z,15.73
2019-05-03T04:10:56.521Z,14.70
2019-05-03T04:13:26.594Z,19.60
2019-05-03T04:16:12.882Z,14.27
2019-05-03T04:18:54.995Z,19.93
2019-05-03T04:21:25.509Z,17.27
2019-05-03T04:23:55.646Z,15.30
2019-05-03T04:26:29.723Z,16.13
2019-05-03T04:28:57.528Z,17.27
2019-05-03T04:31:26.833Z,17.60
2019-05-03T04:33:56.444Z,16.47
2019-05-03T04:36:26.363Z,16.87
2019-05-03T04:38:56.303Z,14.83
2019-05-03T04:41:26.895Z,13.97
2019-05-03T04:43:56.484Z,15.27
2019-05-03T04:46:26.275Z,14.27
2019-05-03T04:48:56.311Z,15.10
2019-05-03T04:51:26.205Z,18.07
2019-05-03T04:54:16.147Z,15.40
2019-05-03T04:56:46.404Z,14.23
2019-05-03T04:59:16.335Z,14.87
2019-05-03T05:01:46.289Z,16.40
2019-05-03T05:04:16.283Z,12.73
2019-05-03T05:06:45.719Z,12.17
2019-05-03T05:09:15.699Z,16.13
2019-05-03T05:11:45.773Z,13.27
2019-05-03T05:14:15.599Z,13.70
2019-05-03T05:16:46.668Z,15.00
2019-05-03T05:19:19.444Z,14.63
2019-05-03T05:21:54.936Z,12.40
2019-05-03T05:24:25.577Z,14.57
2019-05-03T05:27:20.203Z,11.17
2019-05-03T05:29:49.439Z,11.67
2019-05-03T05:32:18.739Z,16.13
2019-05-03T05:34:48.215Z,12.20
2019-05-03T05:37:17.494Z,10.40
2019-05-03T05:39:46.715Z,12.43
2019-05-03T05:42:15.956Z,13.83
2019-05-03T05:44:45.493Z,10.70
2019-05-03T05:47:38.446Z,13.83
2019-05-03T05:50:35.953Z,12.20
2019-05-03T05:53:05.209Z,14.07
2019-05-03T05:55:51.244Z,13.70
2019-05-03T05:58:44.896Z,15.13
2019-05-03T06:01:18.528Z,14.37
2019-05-03T06:03:47.738Z,13.60
2019-05-03T06:06:24.490Z,14.60
2019-05-03T06:09:05.109Z,13.53
2019-05-03T06:11:42.601Z,12.53
2019-05-03T06:14:15.887Z,11.33
2019-05-03T06:17:14.687Z,12.77
2019-05-03T06:20:01.795Z,13.20
2019-05-03T06:22:44.857Z,11.77
2019-05-03T06:25:28.375Z,13.00
2019-05-03T06:27:58.334Z,14.00
2019-05-03T06:30:40.442Z,14.83
2019-05-03T06:33:09.682Z,12.20
2019-05-03T06:35:38.903Z,14.30
2019-05-03T06:38:08.128Z,12.70
2019-05-03T06:40:37.388Z,12.87
2019-05-03T06:43:15.619Z,13.97
2019-05-03T06:45:46.597Z,13.80
2019-05-03T06:48:17.561Z,17.40
2019-05-03T06:50:46.534Z,17.87
2019-05-03T06:53:15.794Z,20.37
2019-05-03T06:55:48.347Z,17.10
2019-05-03T06:58:30.046Z,16.93
2019-05-03T07:01:12.149Z,18.60
2019-05-03T07:03:49.499Z,16.40
2019-05-03T07:06:40.466Z,18.00
2019-05-03T07:09:25.387Z,14.70
2019-05-03T07:11:55.523Z,17.67
2019-05-03T07:14:24.933Z,15.83
2019-05-03T07:16:55.387Z,15.77
2019-05-03T07:19:25.075Z,14.47
2019-05-03T07:21:54.670Z,15.53
2019-05-03T07:24:24.861Z,16.13
2019-05-03T07:26:55.116Z,14.70
2019-05-03T07:29:25.504Z,20.13
2019-05-03T07:31:54.994Z,15.83
2019-05-03T07:34:24.822Z,14.27
2019-05-03T07:36:55.525Z,17.13
2019-05-03T07:39:25.120Z,15.93
2019-05-03T07:41:55.062Z,16.27
2019-05-03T07:44:25.535Z,12.40
2019-05-03T07:46:55.514Z,10.17
2019-05-03T07:49:25.085Z,10.57
2019-05-03T07:51:55.334Z,9.80
2019-05-03T07:54:24.949Z,9.50
2019-05-03T07:56:59.035Z,9.33
2019-05-03T07:59:28.262Z,9.30
2019-05-03T08:01:58.876Z,11.87
2019-05-03T08:04:28.141Z,8.30
2019-05-03T08:06:57.498Z,13.37
2019-05-03T08:09:26.709Z,10.43
2019-05-03T08:11:55.942Z,9.20
2019-05-03T08:14:25.347Z,12.93
2019-05-03T08:16:54.881Z,9.27
2019-05-03T08:19:27.033Z,11.17
2019-05-03T08:21:56.641Z,7.93
2019-05-03T08:24:25.997Z,6.00
2019-05-03T08:26:55.829Z,6.30
2019-05-03T08:29:25.215Z,7.77
2019-05-03T08:32:05.037Z,5.60
2019-05-03T08:34:42.005Z,6.33
2019-05-03T08:37:15.391Z,4.60
2019-05-03T08:39:44.860Z,6.10
2019-05-03T08:42:20.951Z,4.60
2019-05-03T08:44:50.179Z,5.20
2019-05-03T08:47:19.741Z,3.43
2019-05-03T08:49:48.961Z,4.20
2019-05-03T08:52:18.205Z,3.20
2019-05-03T08:54:47.415Z,4.03
2019-05-03T08:57:16.663Z,5.57
2019-05-03T08:59:45.879Z,4.33
2019-05-03T09:02:17.555Z,8.70
2019-05-03T09:04:46.418Z,9.57
2019-05-03T09:07:15.809Z,7.40
2019-05-03T09:09:51.377Z,5.20
2019-05-03T09:12:20.627Z,4.83
2019-05-03T09:14:50.796Z,6.30
2019-05-03T09:17:20.125Z,5.10
2019-05-03T09:19:49.645Z,7.43
2019-05-03T09:22:18.892Z,5.23
2019-05-03T09:24:48.115Z,4.40
2019-05-03T09:27:17.309Z,5.70
2019-05-03T09:29:46.559Z,8.30
2019-05-03T09:32:15.809Z,8.87
2019-05-03T09:34:45.057Z,10.80
2019-05-03T09:37:15.525Z,7.00
2019-05-03T09:39:44.838Z,5.30
2019-05-03T09:42:15.471Z,5.20
2019-05-03T09:44:45.202Z,5.30
2019-05-03T09:47:14.713Z,4.27
2019-05-03T09:49:45.351Z,5.27
2019-05-03T09:52:16.008Z,6.57
2019-05-03T09:54:49.392Z,7.83
2019-05-03T09:57:18.590Z,4.70
2019-05-03T09:59:56.599Z,5.83
2019-05-03T10:02:18.775Z,6.43
2019-05-03T10:04:47.997Z,4.93
2019-05-03T10:07:17.225Z,7.53
2019-05-03T10:09:46.482Z,6.63
2019-05-03T10:12:20.902Z,4.17
2019-05-03T10:14:50.164Z,4.00
2019-05-03T10:17:41.980Z,6.53
2019-05-03T10:20:12.943Z,6.17
2019-05-03T10:22:42.455Z,5.90
2019-05-03T10:25:12.129Z,7.47
2019-05-03T10:27:47.481Z,6.10
2019-05-03T10:30:26.025Z,6.43
2019-05-03T10:33:15.711Z,5.83
2019-05-03T10:35:46.026Z,5.80
2019-05-03T10:38:15.233Z,6.57
2019-05-03T10:40:45.239Z,6.57
2019-05-03T10:43:14.684Z,6.37
2019-05-03T10:45:44.970Z,8.33
2019-05-03T10:48:15.437Z,4.83
2019-05-03T10:50:44.978Z,4.13
2019-05-03T10:53:28.334Z,7.27
2019-05-03T10:56:22.713Z,5.73
2019-05-03T10:59:08.006Z,6.63
2019-05-03T11:01:54.877Z,5.30
2019-05-03T11:04:24.677Z,4.97
2019-05-03T11:06:55.076Z,5.50
2019-05-03T11:09:25.951Z,6.50
2019-05-03T11:11:55.690Z,6.60
2019-05-03T11:14:25.511Z,5.57
2019-05-03T11:16:55.351Z,4.20
2019-05-03T11:19:25.408Z,5.10
2019-05-03T11:21:55.094Z,6.00
2019-05-03T11:24:27.193Z,5.40
2019-05-03T11:27:00.041Z,6.50
2019-05-03T11:29:30.866Z,4.73
2019-05-03T11:32:22.188Z,7.40
2019-05-03T11:35:14.977Z,5.87
2019-05-03T11:38:06.383Z,5.10
2019-05-03T11:40:35.617Z,4.80
2019-05-03T11:43:04.877Z,5.63
2019-05-03T11:45:35.405Z,4.73
2019-05-03T11:48:04.967Z,4.60
2019-05-03T11:50:34.902Z,4.43
2019-05-03T11:53:05.151Z,3.60
2019-05-03T11:55:35.272Z,8.23
2019-05-03T11:58:18.175Z,6.37
2019-05-03T12:00:49.065Z,4.50
2019-05-03T12:03:26.812Z,3.30
2019-05-03T12:05:57.628Z,5.07
2019-05-03T12:08:26.865Z,5.83
2019-05-03T12:11:01.093Z,5.47
2019-05-03T12:13:30.425Z,5.57
2019-05-03T12:16:00.932Z,5.87
2019-05-03T12:18:44.784Z,4.90
2019-05-03T12:21:04.017Z,5.13
2019-05-03T12:23:36.290Z,2.63
2019-05-03T12:26:11.008Z,6.20
2019-05-03T12:28:36.152Z,7.50
2019-05-03T12:31:06.130Z,3.43
2019-05-03T12:33:37.051Z,3.80
2019-05-03T12:36:06.818Z,5.53
2019-05-03T12:38:36.152Z,5.30
2019-05-03T12:41:05.774Z,5.33
2019-05-03T12:43:35.303Z,5.07
2019-05-03T12:46:05.219Z,3.67
2019-05-03T12:48:35.438Z,4.40
2019-05-03T12:51:06.193Z,6.93
2019-05-03T12:53:36.416Z,5.43
2019-05-03T12:56:11.046Z,5.15
2019-05-03T12:58:52.053Z,5.43
2019-05-03T13:01:41.814Z,6.37
2019-05-03T13:04:09.618Z,6.00
2019-05-03T13:06:41.889Z,4.13
2019-05-03T13:09:50.447Z,5.17
2019-05-03T13:12:22.669Z,6.23
2019-05-03T13:14:52.088Z,4.33
2019-05-03T13:17:37.366Z,5.43
2019-05-03T13:20:08.748Z,10.03
2019-05-03T13:22:38.104Z,5.40
2019-05-03T13:25:09.352Z,5.37
2019-05-03T13:27:38.902Z,7.63
2019-05-03T13:30:10.152Z,4.00
2019-05-03T13:32:39.684Z,5.97
2019-05-03T13:35:56.250Z,5.47
2019-05-03T13:38:27.327Z,3.67
2019-05-03T13:40:56.755Z,6.27
2019-05-03T13:43:31.401Z,4.67
2019-05-03T13:46:01.128Z,6.80
2019-05-03T13:48:41.686Z,4.83
2019-05-03T13:51:01.677Z,5.63
2019-05-03T13:53:30.973Z,5.43
2019-05-03T13:56:00.668Z,8.47
2019-05-03T13:58:30.342Z,4.77
2019-05-03T14:00:59.917Z,6.77
2019-05-03T14:03:29.307Z,5.33
2019-05-03T14:05:58.698Z,5.77
2019-05-03T14:08:28.651Z,4.73
2019-05-03T14:11:15.425Z,5.43
2019-05-03T14:13:44.875Z,5.70
2019-05-03T14:16:14.495Z,6.30
2019-05-03T14:18:45.663Z,4.33
2019-05-03T14:21:43.317Z,4.33
2019-05-03T14:24:15.814Z,5.57
2019-05-03T14:26:45.242Z,6.47
2019-05-03T14:29:15.059Z,3.83
2019-05-03T14:31:45.374Z,6.50
2019-05-03T14:34:17.678Z,7.50
2019-05-03T14:36:47.011Z,6.20
2019-05-03T14:39:16.294Z,5.83
2019-05-03T14:41:47.160Z,8.57
2019-05-03T14:44:18.312Z,4.57
2019-05-03T14:46:47.794Z,6.60
2019-05-03T14:49:17.706Z,6.07
2019-05-03T14:51:47.076Z,5.57
2019-05-03T14:54:16.387Z,6.10
2019-05-03T14:56:56.020Z,6.53
2019-05-03T14:59:41.390Z,8.47
2019-05-03T15:02:20.524Z,6.47
2019-05-03T15:04:49.766Z,5.93
2019-05-03T15:07:20.292Z,9.20
2019-05-03T15:09:49.542Z,6.13
2019-05-03T15:12:19.663Z,7.63
2019-05-03T15:14:49.176Z,5.27
2019-05-03T15:17:18.486Z,4.67
2019-05-03T15:19:47.824Z,4.80
2019-05-03T15:22:17.184Z,5.73
2019-05-03T15:24:46.560Z,5.77
2019-05-03T15:27:15.933Z,7.93
2019-05-03T15:29:52.211Z,5.93
2019-05-03T15:32:22.788Z,4.37
2019-05-03T15:34:52.262Z,5.40
2019-05-03T15:37:22.120Z,7.00
2019-05-03T15:39:51.841Z,5.90
2019-05-03T15:42:22.575Z,4.97
2019-05-03T15:44:59.329Z,6.13
2019-05-03T15:47:36.073Z,8.27
2019-05-03T15:50:35.617Z,7.83
2019-05-03T15:53:05.344Z,5.00
2019-05-03T15:55:34.699Z,5.53
2019-05-03T15:58:04.876Z,7.17
2019-05-03T16:00:45.610Z,7.13
2019-05-03T16:03:27.517Z,6.10
2019-05-03T16:05:56.801Z,7.23
2019-05-03T16:08:26.194Z,7.80
2019-05-03T16:10:55.569Z,6.17
2019-05-03T16:13:35.112Z,5.87
2019-05-03T16:16:05.357Z,6.70
2019-05-03T16:18:35.175Z,8.23
2019-05-03T16:21:05.036Z,9.10
2019-05-03T16:23:34.528Z,6.33
2019-05-03T16:26:05.004Z,5.80
2019-05-03T16:28:46.085Z,6.50
2019-05-03T16:31:16.775Z,5.80
2019-05-03T16:33:48.796Z,7.23
2019-05-03T16:36:19.161Z,8.17
2019-05-03T16:38:48.368Z,7.00
2019-05-03T16:41:18.277Z,7.77
2019-05-03T16:43:47.496Z,8.33
2019-05-03T16:46:16.845Z,9.93
2019-05-03T16:48:46.069Z,10.60
2019-05-03T16:51:17.201Z,7.57
2019-05-03T16:53:46.682Z,8.13
2019-05-03T16:56:17.275Z,8.83
2019-05-03T16:58:46.875Z,10.47
2019-05-03T17:01:18.167Z,10.37
2019-05-03T17:03:52.211Z,7.67
2019-05-03T17:06:35.279Z,9.10
2019-05-03T17:09:24.874Z,8.73
2019-05-03T17:12:09.794Z,8.53
2019-05-03T17:14:39.002Z,8.27
2019-05-03T17:17:08.290Z,7.40
2019-05-03T17:19:37.533Z,8.37
2019-05-03T17:22:06.792Z,7.73
2019-05-03T17:24:36.267Z,9.63
2019-05-03T17:27:06.102Z,8.47
2019-05-03T17:29:35.363Z,8.60
2019-05-03T17:32:05.081Z,6.93
2019-05-03T17:34:34.730Z,8.93
2019-05-03T17:37:04.971Z,9.70
2019-05-03T17:39:54.743Z,7.00
2019-05-03T17:42:45.193Z,7.40
2019-05-03T17:45:17.027Z,10.10
2019-05-03T17:47:46.260Z,8.63
2019-05-03T17:50:15.470Z,7.13
2019-05-03T17:52:54.486Z,9.83
2019-05-03T17:55:40.981Z,8.83
2019-05-03T17:58:25.892Z,10.33
2019-05-03T18:01:20.326Z,10.80
2019-05-03T18:04:03.971Z,10.47
2019-05-03T18:06:27.483Z,9.47
2019-05-03T18:09:28.059Z,10.30
2019-05-03T18:12:08.499Z,12.13
2019-05-03T18:14:41.713Z,7.97
2019-05-03T18:17:14.796Z,8.47
2019-05-03T18:19:44.833Z,8.23
2019-05-03T18:22:15.258Z,11.00
2019-05-03T18:24:45.533Z,11.47
2019-05-03T18:27:16.895Z,10.50
2019-05-03T18:29:47.337Z,18.63
2019-05-03T18:32:16.782Z,16.93
2019-05-03T18:34:45.910Z,13.73
2019-05-03T18:37:18.014Z,27.90
2019-05-03T18:39:47.383Z,12.97
2019-05-03T18:42:24.578Z,11.00
2019-05-03T18:45:11.888Z,15.83
2019-05-03T18:47:41.621Z,12.03
2019-05-03T18:50:10.866Z,12.00
2019-05-03T18:52:40.110Z,9.67
2019-05-03T18:55:17.762Z,10.47
2019-05-03T18:57:46.999Z,12.07
2019-05-03T19:00:19.418Z,11.80
2019-05-03T19:02:50.791Z,10.13
2019-05-03T19:05:21.931Z,10.63
2019-05-03T19:08:15.210Z,10.90
2019-05-03T19:10:57.883Z,11.23
2019-05-03T19:13:30.466Z,10.77
2019-05-03T19:16:04.390Z,9.43
2019-05-03T19:18:38.690Z,11.47
2019-05-03T19:21:08.403Z,12.17
2019-05-03T19:23:37.943Z,10.60
2019-05-03T19:26:07.191Z,13.80
2019-05-03T19:28:36.902Z,14.73
2019-05-03T19:31:06.452Z,12.73
2019-05-03T19:33:37.267Z,9.60
2019-05-03T19:36:06.852Z,11.83
2019-05-03T19:38:36.078Z,9.17
2019-05-03T19:41:05.576Z,10.53
2019-05-03T19:43:35.706Z,12.40
2019-05-03T19:46:07.343Z,10.83
2019-05-03T19:48:41.473Z,11.67
2019-05-03T19:51:18.484Z,12.67
2019-05-03T19:53:52.158Z,10.73
2019-05-03T19:56:22.573Z,12.53
2019-05-03T19:58:55.848Z,14.17
2019-05-03T20:01:44.098Z,10.77
2019-05-03T20:04:32.278Z,12.40
2019-05-03T20:07:20.842Z,12.90
2019-05-03T20:09:50.394Z,12.77
2019-05-03T20:12:21.192Z,13.80
2019-05-03T20:14:50.792Z,13.47
2019-05-03T20:17:20.121Z,13.77
2019-05-03T20:19:49.386Z,16.10
2019-05-03T20:22:18.641Z,14.60
2019-05-03T20:24:47.978Z,16.27
2019-05-03T20:27:17.251Z,15.23
2019-05-03T20:29:46.887Z,16.33
2019-05-03T20:32:16.152Z,14.70
2019-05-03T20:34:45.393Z,16.37
2019-05-03T20:37:14.834Z,13.93
2019-05-03T20:39:44.470Z,15.83
2019-05-03T20:42:16.416Z,14.80
2019-05-03T20:44:57.101Z,14.00
2019-05-03T20:47:40.083Z,14.63
2019-05-03T20:50:15.788Z,16.23
2019-05-03T20:52:45.739Z,18.10
2019-05-03T20:55:15.671Z,15.13
2019-05-03T20:57:45.998Z,16.40
2019-05-03T21:00:19.012Z,14.83
2019-05-03T21:02:53.531Z,17.00
2019-05-03T21:05:29.623Z,16.90
2019-05-03T21:07:51.627Z,17.93
2019-05-03T21:10:20.901Z,17.83
2019-05-03T21:12:50.391Z,15.23
2019-05-03T21:15:35.821Z,15.13
2019-05-03T21:18:18.634Z,17.83
2019-05-03T21:20:59.621Z,17.40
2019-05-03T21:23:30.954Z,17.67
2019-05-03T21:26:13.418Z,15.77
2019-05-03T21:28:41.216Z,14.40
2019-05-03T21:31:10.494Z,14.37
2019-05-03T21:33:40.031Z,15.63
2019-05-03T21:36:09.266Z,12.70
2019-05-03T21:38:40.816Z,17.07
2019-05-03T21:41:10.052Z,16.10
2019-05-03T21:43:39.673Z,15.87
2019-05-03T21:46:32.648Z,15.57
2019-05-03T21:49:10.635Z,14.37
2019-05-03T21:51:41.284Z,17.43
2019-05-03T21:54:15.538Z,16.87
2019-05-03T21:56:44.862Z,18.17
2019-05-03T21:59:14.131Z,18.03
2019-05-03T22:01:46.784Z,13.77
2019-05-03T22:04:16.042Z,17.53
2019-05-03T22:06:45.280Z,18.77
2019-05-03T22:09:14.614Z,16.37
2019-05-03T22:11:44.678Z,16.17
2019-05-03T22:14:20.950Z,14.53
2019-05-03T22:17:09.493Z,14.90
2019-05-03T22:19:38.726Z,20.07
2019-05-03T22:22:28.601Z,16.87
2019-05-03T22:24:58.526Z,15.13
2019-05-03T22:27:32.090Z,14.87
2019-05-03T22:30:01.375Z,19.03
2019-05-03T22:32:30.933Z,17.27
2019-05-03T22:35:00.205Z,19.63
2019-05-03T22:37:29.750Z,17.43
2019-05-03T22:39:59.011Z,14.20
2019-05-03T22:42:30.246Z,18.80
2019-05-03T22:45:00.529Z,16.60
2019-05-03T22:47:29.758Z,18.03
2019-05-03T22:49:59.267Z,14.23
2019-05-03T22:52:28.770Z,16.33
2019-05-03T22:54:58.046Z,17.47
2019-05-03T22:57:28.164Z,18.40
2019-05-03T22:59:58.102Z,15.60
2019-05-03T23:02:27.336Z,14.87
2019-05-03T23:04:56.610Z,16.63
2019-05-03T23:07:25.843Z,16.53
2019-05-03T23:09:55.083Z,17.10
2019-05-03T23:12:25.113Z,16.13
2019-05-03T23:14:55.085Z,15.73
2019-05-03T23:17:25.402Z,15.80
2019-05-03T23:19:59.563Z,14.97
2019-05-03T23:22:31.273Z,15.23
2019-05-03T23:25:00.526Z,15.87
2019-05-03T23:27:30.124Z,15.60
2019-05-03T23:30:00.463Z,18.93
2019-05-03T23:32:30.091Z,17.93
2019-05-03T23:34:59.330Z,14.37
2019-05-03T23:37:28.681Z,16.20
2019-05-03T23:39:57.942Z,14.73
2019-05-03T23:42:27.193Z,18.50
2019-05-03T23:44:56.411Z,18.80
2019-05-03T23:47:46.297Z,14.20
2019-05-03T23:50:20.384Z,15.67
2019-05-03T23:52:49.650Z,13.40
2019-05-03T23:55:27.271Z,16.37
2019-05-03T23:57:56.536Z,15.47
